Time;durP1;ratioP1;P1;durP2;ratioP2;P2;SDS_P1;SDS_P2;PMS_P1;PMS_P2;Temp;Humidity;BMP_temperature;BMP_pressure;BME280_temperature;BME280_humidity;BME280_pressure;Samples;Min_cycle;Max_cycle;Signal;HPM_P1;HPM_P2
2021/04/18 04:02:30;;;;;;;26.73;20.70;;;;;;;;;;5000028;23;20568;-83
2021/04/18 04:04:56;;;;;;;17.27;14.97;;;3.00;96.30;;;;;;4960140;28;20965;-83
2021/04/18 04:07:21;;;;;;;20.13;15.07;;;3.00;96.30;;;;;;4955149;28;20278;-82
2021/04/18 04:09:47;;;;;;;14.87;13.10;;;3.00;96.30;;;;;;4957305;28;20183;-82
2021/04/18 04:12:12;;;;;;;14.80;12.60;;;;;;;;;;4957336;28;20195;-82
2021/04/18 04:14:38;;;;;;;15.97;13.27;;;3.00;96.30;;;;;;4956187;29;20194;-82
2021/04/18 04:17:04;;;;;;;16.77;12.90;;;;;;;;;;4956588;29;20182;-82
2021/04/18 04:19:29;;;;;;;15.87;13.03;;;2.90;96.30;;;;;;4957337;28;20667;-82
2021/04/18 04:21:55;;;;;;;15.90;12.50;;;;;;;;;;4955584;28;20529;-82
2021/04/18 04:24:21;;;;;;;18.27;13.80;;;;;;;;;;4955981;29;20202;-83
2021/04/18 04:26:47;;;;;;;17.10;12.77;;;;;;;;;;4955816;29;20217;-82
2021/04/18 04:29:13;;;;;;;13.13;11.77;;;;;;;;;;4957345;28;20449;-82
2021/04/18 04:31:39;;;;;;;15.23;13.30;;;;;;;;;;4957363;28;20202;-82
2021/04/18 04:34:05;;;;;;;20.37;13.33;;;2.90;96.30;;;;;;4956025;28;20509;-82
2021/04/18 04:36:30;;;;;;;18.23;12.73;;;2.90;96.30;;;;;;4957326;28;20562;-82
2021/04/18 04:38:56;;;;;;;13.37;11.47;;;;;;;;;;4955343;29;20179;-82
2021/04/18 04:41:22;;;;;;;14.33;12.13;;;;;;;;;;4957699;28;20206;-82
2021/04/18 04:43:48;;;;;;;16.37;12.40;;;;;;;;;;4955810;28;20695;-82
2021/04/18 04:46:14;;;;;;;13.07;11.67;;;2.80;96.30;;;;;;4956248;29;20186;-82
2021/04/18 04:48:40;;;;;;;20.43;12.57;;;2.90;96.30;;;;;;4957276;28;20801;-82
2021/04/18 04:51:06;;;;;;;14.97;13.37;;;2.90;96.30;;;;;;4955917;28;20206;-82
2021/04/18 04:53:32;;;;;;;19.40;13.37;;;;;;;;;;4957693;28;20419;-82
2021/04/18 04:55:58;;;;;;;16.50;14.70;;;;;;;;;;4957650;29;20179;-82
2021/04/18 04:58:24;;;;;;;15.53;13.87;;;;;;;;;;4955817;29;20521;-82
2021/04/18 05:00:49;;;;;;;14.07;11.87;;;3.00;96.30;;;;;;4957047;28;20525;-82
2021/04/18 05:03:16;;;;;;;17.90;13.20;;;;;;;;;;4956006;29;20915;-82
2021/04/18 05:05:42;;;;;;;13.83;11.60;;;;;;;;;;4956125;29;20224;-83
2021/04/18 05:08:08;;;;;;;23.53;14.03;;;;;;;;;;4955856;28;20466;-82
2021/04/18 05:10:34;;;;;;;15.50;12.77;;;;;;;;;;4956488;28;20433;-82
2021/04/18 05:13:00;;;;;;;16.47;13.57;;;;;;;;;;4958362;28;20179;-82
2021/04/18 05:15:26;;;;;;;16.53;13.23;;;;;;;;;;4958405;29;20201;-82
2021/04/18 05:17:51;;;;;;;19.00;14.40;;;3.30;96.30;;;;;;4968089;28;20434;-82
2021/04/18 05:20:20;;;;;;;16.60;12.83;;;3.40;96.30;;;;;;4975950;28;20426;-82
2021/04/18 05:22:46;;;;;;;16.43;13.00;;;3.50;96.30;;;;;;4975213;28;20186;-82
2021/04/18 05:25:13;;;;;;;18.07;14.10;;;3.70;96.30;;;;;;4970212;28;20474;-82
2021/04/18 05:27:39;;;;;;;20.87;13.20;;;3.80;96.30;;;;;;4981518;28;20185;-82
2021/04/18 05:30:06;;;;;;;15.80;14.20;;;4.00;96.30;;;;;;4978444;28;20815;-82
2021/04/18 05:32:33;;;;;;;17.67;13.90;;;4.10;96.30;;;;;;4975514;28;20273;-82
2021/04/18 05:34:59;;;;;;;17.50;13.07;;;;;;;;;;4963309;28;20418;-82
2021/04/18 05:37:25;;;;;;;15.67;12.87;;;;;;;;;;4960451;29;20489;-81
2021/04/18 05:39:51;;;;;;;16.53;13.17;;;4.40;96.30;;;;;;4982932;28;20841;-82
2021/04/18 05:42:17;;;;;;;16.03;13.93;;;;;;;;;;4982158;28;20437;-82
2021/04/18 05:44:42;;;;;;;16.50;13.10;;;;;;;;;;4978815;28;20202;-82
2021/04/18 05:47:08;;;;;;;16.17;12.20;;;;;;;;;;4980299;28;20434;-82
2021/04/18 05:49:35;;;;;;;13.90;11.20;;;;;;;;;;4981823;28;20638;-82
2021/04/18 05:52:00;;;;;;;15.23;11.97;;;4.20;96.30;;;;;;4979607;28;20426;-82
2021/04/18 05:54:26;;;;;;;27.93;18.60;;;;;;;;;;4979914;28;20855;-82
2021/04/18 05:56:52;;;;;;;16.87;13.20;;;4.20;96.30;;;;;;4955997;29;20187;-82
2021/04/18 05:59:18;;;;;;;15.03;12.57;;;;;;;;;;4970682;28;20265;-82
2021/04/18 06:01:44;;;;;;;18.53;14.10;;;4.30;96.30;;;;;;4979661;28;20253;-83
2021/04/18 06:04:10;;;;;;;14.13;12.63;;;4.30;96.30;;;;;;5000851;28;20999;-83
2021/04/18 06:06:36;;;;;;;16.37;13.07;;;;;;;;;;4997914;28;20419;-83
2021/04/18 06:09:02;;;;;;;16.87;13.10;;;4.40;96.30;;;;;;4996493;28;20542;-82
2021/04/18 06:11:28;;;;;;;18.80;14.27;;;;;;;;;;4996111;28;20437;-83
2021/04/18 06:13:54;;;;;;;17.47;14.73;;;;;;;;;;4995808;28;20421;-83
2021/04/18 06:16:19;;;;;;;17.43;15.50;;;;;;;;;;4996464;28;20511;-82
2021/04/18 06:18:45;;;;;;;20.67;15.03;;;4.50;96.30;;;;;;4997532;28;20240;-83
2021/04/18 06:21:11;;;;;;;15.30;13.77;;;;;;;;;;4998823;28;20260;-83
2021/04/18 06:23:37;;;;;;;13.93;12.23;;;;;;;;;;4997037;28;20213;-83
2021/04/18 06:26:03;;;;;;;15.63;12.50;;;4.50;96.30;;;;;;4999262;28;20416;-82
2021/04/18 06:28:29;;;;;;;17.33;12.80;;;;;;;;;;4998036;28;20463;-83
2021/04/18 06:30:55;;;;;;;16.13;12.50;;;;;;;;;;4997926;28;20257;-83
2021/04/18 06:33:21;;;;;;;15.00;13.20;;;;;;;;;;4983144;28;21051;-83
2021/04/18 06:35:47;;;;;;;12.37;11.13;;;;;;;;;;4977774;28;20289;-82
2021/04/18 06:38:13;;;;;;;15.20;12.23;;;;;;;;;;4977737;28;20421;-82
2021/04/18 06:40:39;;;;;;;15.00;11.70;;;4.70;96.30;;;;;;4977921;28;20915;-82
2021/04/18 06:43:07;;;;;;;13.97;12.03;;;4.70;96.30;;;;;;4978290;28;20456;-82
2021/04/18 06:45:33;;;;;;;14.43;11.77;;;;;;;;;;4977892;28;20474;-82
2021/04/18 06:48:00;;;;;;;17.70;12.90;;;4.70;96.30;;;;;;4979205;28;20898;-82
2021/04/18 06:50:26;;;;;;;15.97;13.57;;;4.80;96.30;;;;;;4980710;28;20418;-83
2021/04/18 06:52:52;;;;;;;16.63;13.57;;;;;;;;;;4980239;28;20488;-82
2021/04/18 06:55:18;;;;;;;23.57;13.47;;;;;;;;;;4979775;28;20178;-81
2021/04/18 06:57:43;;;;;;;13.80;12.40;;;5.00;96.30;;;;;;4985580;28;20189;-82
2021/04/18 07:00:12;;;;;;;16.33;12.70;;;5.20;96.30;;;;;;4990079;28;20422;-82
2021/04/18 07:02:38;;;;;;;15.63;13.90;;;5.40;96.30;;;;;;4974230;28;20678;-86
2021/04/18 07:05:04;;;;;;;18.03;14.27;;;;;;;;;;4972467;28;20480;-84
2021/04/18 07:07:32;;;;;;;19.97;15.73;;;5.60;96.30;;;;;;4974230;28;20421;-82
2021/04/18 07:09:58;;;;;;;15.57;12.50;;;5.70;96.30;;;;;;4972830;28;20421;-83
2021/04/18 07:12:29;;;;;;;17.87;14.13;;;5.80;96.30;;;;;;4973945;28;20528;-83
2021/04/18 07:14:56;;;;;;;21.40;16.17;;;5.80;96.30;;;;;;4971737;28;20819;-82
2021/04/18 07:17:23;;;;;;;20.20;14.87;;;5.80;96.30;;;;;;4974087;28;20901;-83
2021/04/18 07:19:50;;;;;;;20.00;14.40;;;5.90;96.30;;;;;;4978199;28;20418;-82
2021/04/18 07:22:28;;;;;;;17.80;15.17;;;5.90;96.30;;;;;;4979187;28;20449;-82
2021/04/18 07:24:59;;;;;;;17.00;14.40;;;6.00;96.30;;;;;;4978679;28;20453;-83
2021/04/18 07:27:46;;;;;;;16.60;13.40;;;6.10;96.30;;;;;;4985516;28;20905;-81
2021/04/18 07:30:13;;;;;;;17.17;13.47;;;6.30;96.30;;;;;;4990318;28;20414;-83
2021/04/18 07:32:38;;;;;;;17.83;13.40;;;6.60;96.30;;;;;;4979661;28;20973;-82
2021/04/18 07:35:04;;;;;;;16.37;13.53;;;6.60;96.30;;;;;;4976656;28;20426;-82
2021/04/18 07:37:30;;;;;;;16.30;12.80;;;7.00;96.30;;;;;;4972795;28;20221;-82
2021/04/18 07:39:57;;;;;;;17.17;14.20;;;7.30;96.30;;;;;;4975712;28;20433;-82
2021/04/18 07:42:43;;;;;;;14.97;12.93;;;7.30;96.30;;;;;;4973581;28;20288;-82
2021/04/18 07:45:17;;;;;;;14.70;13.00;;;7.10;96.30;;;;;;4974313;28;20453;-83
2021/04/18 07:47:45;;;;;;;16.80;12.17;;;6.90;96.30;;;;;;4981962;28;20504;-83
2021/04/18 07:50:14;;;;;;;17.50;13.07;;;6.90;96.30;;;;;;4992770;28;20844;-82
2021/04/18 07:52:46;;;;;;;15.73;12.60;;;6.90;96.30;;;;;;4991245;28;20416;-83
2021/04/18 07:55:13;;;;;;;14.17;12.27;;;6.80;96.30;;;;;;4990653;28;20408;-82
2021/04/18 07:57:39;;;;;;;19.00;14.50;;;6.70;96.30;;;;;;4971745;28;20790;-83
2021/04/18 08:00:07;;;;;;;14.83;13.07;;;6.80;96.30;;;;;;4973683;28;20496;-82
2021/04/18 08:02:33;;;;;;;18.40;14.37;;;6.80;96.30;;;;;;4971178;28;20449;-83
2021/04/18 08:04:59;;;;;;;18.13;15.90;;;6.90;96.30;;;;;;4974042;28;20936;-82
2021/04/18 08:07:24;;;;;;;16.87;13.63;;;;;;;;;;4973694;28;20190;-82
2021/04/18 08:10:25;;;;;;;18.43;15.30;;;6.80;96.30;;;;;;4974304;28;20202;-82
2021/04/18 08:13:08;;;;;;;19.20;14.70;;;6.90;96.30;;;;;;4978245;28;20163;-82
2021/04/18 08:15:37;;;;;;;16.40;14.60;;;6.90;96.30;;;;;;4958387;28;20910;-82
2021/04/18 08:18:11;;;;;;;17.87;15.13;;;6.90;96.30;;;;;;4956271;28;20421;-83
2021/04/18 08:20:43;;;;;;;21.00;14.63;;;6.90;96.30;;;;;;4964207;28;20441;-83
2021/04/18 08:23:15;;;;;;;16.70;13.90;;;6.90;96.30;;;;;;4966866;28;20450;-82
2021/04/18 08:26:19;;;;;;;23.53;14.83;;;7.00;96.30;;;;;;4958009;29;20529;-83
2021/04/18 08:29:05;;;;;;;17.90;14.40;;;7.00;96.30;;;;;;4958313;29;20414;-83
2021/04/18 08:32:01;;;;;;;18.97;16.03;;;7.00;96.30;;;;;;4958846;29;20521;-82
2021/04/18 08:34:33;;;;;;;19.93;15.77;;;7.20;96.30;;;;;;4954911;28;20514;-82
2021/04/18 08:37:00;;;;;;;18.07;15.10;;;7.20;96.30;;;;;;4958290;29;20466;-82
2021/04/18 08:39:31;;;;;;;21.17;15.20;;;7.50;96.30;;;;;;4958724;29;20497;-82
2021/04/18 08:42:01;;;;;;;17.87;15.13;;;7.80;96.30;;;;;;4957009;28;20946;-82
2021/04/18 08:44:36;;;;;;;20.00;15.20;;;8.00;96.30;;;;;;4955820;29;20450;-82
2021/04/18 08:47:13;;;;;;;18.13;15.20;;;8.20;96.30;;;;;;4969822;28;20468;-82
2021/04/18 08:49:57;;;;;;;19.80;15.13;;;8.50;96.30;;;;;;4975281;28;20459;-82
2021/04/18 08:52:28;;;;;;;18.13;14.60;;;9.10;96.30;;;;;;4975504;28;20434;-81
2021/04/18 08:54:58;;;;;;;19.53;15.27;;;9.90;96.30;;;;;;4975557;28;20414;-81
2021/04/18 08:57:32;;;;;;;18.00;14.97;;;10.10;96.30;;;;;;4975198;28;20457;-81
2021/04/18 09:00:00;;;;;;;15.80;13.63;;;10.10;96.30;;;;;;4974262;28;20445;-82
2021/04/18 09:02:28;;;;;;;15.93;13.77;;;10.10;96.30;;;;;;4974949;28;20548;-82
2021/04/18 09:04:57;;;;;;;18.40;13.60;;;9.80;96.30;;;;;;4974203;28;20487;-81
2021/04/18 09:07:28;;;;;;;16.73;13.83;;;10.00;96.30;;;;;;4974922;28;20821;-82
2021/04/18 09:09:58;;;;;;;17.87;13.63;;;9.90;96.30;;;;;;4975519;28;21109;-82
2021/04/18 09:12:24;;;;;;;18.00;14.30;;;9.90;96.30;;;;;;4975352;28;20433;-81
2021/04/18 09:14:50;;;;;;;17.93;12.90;;;9.80;96.30;;;;;;4975322;28;20422;-82
2021/04/18 09:17:31;;;;;;;29.00;14.20;;;9.80;96.30;;;;;;4974883;28;20634;-82
2021/04/18 09:20:10;;;;;;;24.43;14.13;;;9.80;96.30;;;;;;4974151;28;20451;-81
2021/04/18 09:22:42;;;;;;;16.20;13.53;;;9.50;96.30;;;;;;4974181;28;20421;-81
2021/04/18 09:25:09;;;;;;;18.67;14.03;;;9.50;96.30;;;;;;4975327;28;20453;-82
2021/04/18 09:27:44;;;;;;;19.33;13.97;;;9.50;96.30;;;;;;4973620;28;20413;-82
2021/04/18 09:30:23;;;;;;;20.20;14.80;;;9.40;96.30;;;;;;4974190;28;20417;-83
2021/04/18 09:32:54;;;;;;;16.33;13.17;;;9.20;96.30;;;;;;4973905;28;20784;-82
2021/04/18 09:35:27;;;;;;;25.53;14.00;;;9.20;96.30;;;;;;4975163;28;20402;-82
2021/04/18 09:37:59;;;;;;;24.23;13.77;;;9.20;96.30;;;;;;4974540;28;20762;-81
2021/04/18 09:40:27;;;;;;;19.20;13.50;;;9.20;96.30;;;;;;4973913;28;20935;-82
2021/04/18 09:42:54;;;;;;;17.47;14.67;;;9.20;96.30;;;;;;4974759;28;20822;-81
2021/04/18 09:45:22;;;;;;;19.57;14.67;;;9.30;96.30;;;;;;4973481;28;20999;-82
2021/04/18 09:47:53;;;;;;;17.47;13.60;;;9.30;96.30;;;;;;4974604;28;20496;-82
2021/04/18 09:50:30;;;;;;;16.40;13.83;;;9.50;96.30;;;;;;4974020;28;20469;-82
2021/04/18 09:53:10;;;;;;;18.70;15.10;;;9.50;96.30;;;;;;4973679;28;20414;-82
2021/04/18 09:55:52;;;;;;;19.90;15.53;;;9.80;96.30;;;;;;4973406;28;20414;-82
2021/04/18 09:58:32;;;;;;;26.10;14.80;;;10.70;96.30;;;;;;4972747;28;20426;-82
2021/04/18 10:01:01;;;;;;;18.57;14.90;;;11.30;96.30;;;;;;4973169;28;20501;-82
2021/04/18 10:03:37;;;;;;;18.40;14.77;;;11.90;96.30;;;;;;4973194;28;20425;-82
2021/04/18 10:06:04;;;;;;;20.23;13.80;;;12.50;96.30;;;;;;4976062;28;20421;-82
2021/04/18 10:08:37;;;;;;;15.13;13.10;;;12.80;96.30;;;;;;4974171;28;20445;-82
2021/04/18 10:11:05;;;;;;;14.63;12.40;;;12.90;96.30;;;;;;4974916;28;20440;-83
2021/04/18 10:13:45;;;;;;;22.13;14.87;;;12.10;96.30;;;;;;4974697;28;20421;-83
2021/04/18 10:16:13;;;;;;;16.77;13.10;;;11.50;96.30;;;;;;4973182;28;21106;-83
2021/04/18 10:18:41;;;;;;;16.50;13.37;;;10.60;96.30;;;;;;4973278;28;20895;-82
2021/04/18 10:21:21;;;;;;;15.40;12.60;;;11.00;96.30;;;;;;4975178;28;20438;-83
2021/04/18 10:23:48;;;;;;;21.67;14.10;;;11.20;96.30;;;;;;4973411;28;20453;-83
2021/04/18 10:26:20;;;;;;;17.00;14.00;;;11.30;96.30;;;;;;4973627;28;20418;-83
2021/04/18 10:28:47;;;;;;;19.47;14.53;;;11.50;96.30;;;;;;4973875;28;20413;-83
2021/04/18 10:31:13;;;;;;;19.00;14.10;;;11.60;96.30;;;;;;4973322;28;20778;-83
2021/04/18 10:33:39;;;;;;;19.07;14.43;;;11.60;96.30;;;;;;4974783;28;20417;-83
2021/04/18 10:36:05;;;;;;;18.83;13.00;;;11.50;96.30;;;;;;4973757;28;20409;-82
2021/04/18 10:38:31;;;;;;;18.10;13.30;;;11.50;96.30;;;;;;4973417;28;20705;-82
2021/04/18 10:40:56;;;;;;;20.33;13.70;;;11.30;96.30;;;;;;4977583;28;20455;-82
2021/04/18 10:43:22;;;;;;;18.30;14.43;;;11.30;96.30;;;;;;4974560;28;20186;-83
2021/04/18 10:45:48;;;;;;;20.80;15.20;;;;;;;;;;4976015;28;20245;-82
2021/04/18 10:48:13;;;;;;;18.50;14.20;;;10.90;96.30;;;;;;4976198;28;20301;-82
2021/04/18 10:50:39;;;;;;;16.90;14.27;;;10.60;96.30;;;;;;4975433;28;20209;-82
2021/04/18 10:53:04;;;;;;;16.03;13.13;;;10.30;96.30;;;;;;4977216;28;20174;-82
2021/04/18 10:55:30;;;;;;;18.97;14.23;;;;;;;;;;4977470;28;20259;-82
2021/04/18 10:57:56;;;;;;;26.10;14.13;;;;;;;;;;4968016;28;20183;-84
2021/04/18 11:00:22;;;;;;;19.23;14.40;;;9.70;96.30;;;;;;4955934;28;20322;-84
2021/04/18 11:02:48;;;;;;;24.57;15.53;;;9.40;96.30;;;;;;4974606;28;20468;-83
2021/04/18 11:05:14;;;;;;;20.57;15.47;;;9.10;96.30;;;;;;4977117;28;20756;-81
2021/04/18 11:07:39;;;;;;;18.77;13.80;;;8.60;96.30;;;;;;4974979;28;20175;-81
2021/04/18 11:10:07;;;;;;;20.93;14.60;;;8.30;96.30;;;;;;4977573;28;20424;-83
2021/04/18 11:12:32;;;;;;;22.20;14.77;;;8.10;96.30;;;;;;4974966;28;20229;-84
2021/04/18 11:14:58;;;;;;;23.33;15.17;;;8.00;96.30;;;;;;4978995;28;20433;-84
2021/04/18 11:17:24;;;;;;;21.33;15.20;;;7.90;96.30;;;;;;4988227;28;20205;-83
2021/04/18 11:19:52;;;;;;;19.90;15.57;;;7.90;96.30;;;;;;4986543;28;20178;-83
2021/04/18 11:22:18;;;;;;;20.33;15.40;;;8.00;96.30;;;;;;4974158;28;20300;-83
2021/04/18 11:24:44;;;;;;;18.57;15.10;;;8.00;96.30;;;;;;4971175;28;20464;-84
2021/04/18 11:27:10;;;;;;;18.27;15.03;;;7.90;96.30;;;;;;4972677;28;20426;-83
2021/04/18 11:29:40;;;;;;;22.30;14.17;;;7.80;96.30;;;;;;4974429;28;20622;-82
2021/04/18 11:32:06;;;;;;;22.03;17.30;;;7.60;96.30;;;;;;4972947;28;20198;-82
2021/04/18 11:34:32;;;;;;;22.00;18.40;;;7.40;96.30;;;;;;4974775;28;20417;-83
2021/04/18 11:36:57;;;;;;;25.67;19.27;;;7.30;96.30;;;;;;4972423;28;20182;-82
2021/04/18 11:39:23;;;;;;;28.13;20.00;;;7.20;96.30;;;;;;4978944;28;20174;-85
2021/04/18 11:41:48;;;;;;;22.50;20.20;;;7.20;96.30;;;;;;4973031;28;20297;-84
2021/04/18 11:44:15;;;;;;;25.33;20.77;;;7.10;96.30;;;;;;4975211;28;20214;-85
2021/04/18 11:46:42;;;;;;;24.53;21.60;;;7.00;96.30;;;;;;4977508;28;20277;-85
2021/04/18 11:49:08;;;;;;;26.47;21.60;;;6.90;96.30;;;;;;4975638;28;20418;-83
2021/04/18 11:51:33;;;;;;;24.97;20.93;;;6.80;96.30;;;;;;4975022;28;21166;-85
2021/04/18 11:53:59;;;;;;;21.97;18.10;;;6.80;96.30;;;;;;4973518;28;20188;-86
2021/04/18 11:56:24;;;;;;;22.70;20.33;;;6.80;96.30;;;;;;4976559;28;20217;-85
2021/04/18 11:58:50;;;;;;;28.00;20.53;;;6.70;96.30;;;;;;4974928;28;20210;-85
2021/04/18 12:01:15;;;;;;;24.57;21.10;;;6.70;96.30;;;;;;4972952;28;20225;-86
2021/04/18 12:03:41;;;;;;;22.00;19.70;;;6.80;96.30;;;;;;4975054;28;20558;-84
2021/04/18 12:06:07;;;;;;;21.07;18.87;;;6.80;96.30;;;;;;4975874;28;20186;-86
2021/04/18 12:08:32;;;;;;;21.57;19.37;;;6.80;96.30;;;;;;4973671;28;20179;-85
2021/04/18 12:10:58;;;;;;;21.20;18.90;;;6.80;96.30;;;;;;4977251;28;20838;-85
2021/04/18 12:13:23;;;;;;;24.23;19.77;;;6.80;96.30;;;;;;4975779;28;20166;-85
2021/04/18 12:15:49;;;;;;;26.03;18.10;;;6.80;96.30;;;;;;4976050;28;20182;-85
2021/04/18 12:18:14;;;;;;;24.03;20.10;;;6.90;96.30;;;;;;4976049;28;20178;-84
2021/04/18 12:20:40;;;;;;;23.73;19.37;;;6.90;96.30;;;;;;4975593;28;20210;-84
2021/04/18 12:23:05;;;;;;;19.43;17.13;;;7.00;96.30;;;;;;4977144;28;20685;-83
2021/04/18 12:25:31;;;;;;;20.93;16.17;;;7.10;96.30;;;;;;4976700;28;20199;-84
2021/04/18 12:27:56;;;;;;;19.73;17.60;;;7.10;96.30;;;;;;4975714;28;20189;-83
2021/04/18 12:30:23;;;;;;;17.80;15.87;;;7.20;96.30;;;;;;4976510;28;20236;-84
2021/04/18 12:32:48;;;;;;;18.27;16.03;;;7.30;96.30;;;;;;4976358;28;20189;-84
2021/04/18 12:35:15;;;;;;;17.87;16.00;;;7.50;96.30;;;;;;4979804;28;20426;-84
2021/04/18 12:37:41;;;;;;;18.37;16.50;;;7.50;96.30;;;;;;4974184;28;20186;-85
2021/04/18 12:40:08;;;;;;;16.50;14.50;;;7.60;96.30;;;;;;4975238;28;20426;-85
2021/04/18 12:42:35;;;;;;;17.70;13.80;;;7.60;96.30;;;;;;4980037;28;20500;-85
2021/04/18 12:45:01;;;;;;;15.00;13.60;;;7.50;96.30;;;;;;4975879;28;20472;-84
2021/04/18 12:47:26;;;;;;;13.90;12.50;;;7.40;96.30;;;;;;4974122;28;20781;-85
2021/04/18 12:49:55;;;;;;;14.33;12.83;;;7.30;96.30;;;;;;4954800;29;20422;-84
2021/04/18 12:52:20;;;;;;;14.90;12.33;;;7.20;96.30;;;;;;4955053;28;20195;-85
2021/04/18 12:54:46;;;;;;;13.47;12.17;;;7.10;96.30;;;;;;4968175;28;20472;-84
2021/04/18 12:57:16;;;;;;;13.40;11.60;;;7.00;96.30;;;;;;4973663;28;20213;-85
2021/04/18 12:59:42;;;;;;;14.30;12.87;;;7.00;96.30;;;;;;4976029;28;20158;-84
2021/04/18 13:02:09;;;;;;;16.63;12.97;;;7.10;96.30;;;;;;4975539;28;20549;-85
2021/04/18 13:04:34;;;;;;;15.23;12.70;;;;;;;;;;4974065;28;20461;-85
2021/04/18 13:07:01;;;;;;;17.80;12.70;;;7.10;96.30;;;;;;4973709;28;20417;-86
2021/04/18 13:09:27;;;;;;;13.40;12.00;;;;;;;;;;4974006;28;20497;-85
2021/04/18 13:11:53;;;;;;;14.43;12.47;;;;;;;;;;4973980;28;20434;-85
2021/04/18 13:14:18;;;;;;;15.57;12.80;;;7.10;96.30;;;;;;4973886;28;20410;-85
2021/04/18 13:16:45;;;;;;;18.10;12.53;;;7.10;96.30;;;;;;4975721;28;20926;-85
2021/04/18 13:19:11;;;;;;;18.27;14.20;;;7.10;96.30;;;;;;4974666;28;20186;-84
2021/04/18 13:21:37;;;;;;;13.67;12.03;;;7.00;96.30;;;;;;4974643;28;20464;-84
2021/04/18 13:24:03;;;;;;;14.23;12.13;;;6.90;96.30;;;;;;4972565;28;20466;-84
2021/04/18 13:26:29;;;;;;;13.83;11.67;;;6.90;96.30;;;;;;4954881;28;20182;-84
2021/04/18 13:28:54;;;;;;;16.53;12.67;;;6.80;96.30;;;;;;4970569;28;20480;-84
2021/04/18 13:31:20;;;;;;;14.90;12.03;;;6.80;96.30;;;;;;4973941;28;20616;-84
2021/04/18 13:33:46;;;;;;;15.47;12.63;;;6.80;96.30;;;;;;4971087;28;20182;-84
2021/04/18 13:36:11;;;;;;;17.80;12.23;;;6.90;96.30;;;;;;4974866;28;20182;-85
2021/04/18 13:38:37;;;;;;;16.90;13.10;;;6.80;96.30;;;;;;4974415;28;20253;-85
2021/04/18 13:41:04;;;;;;;13.53;12.17;;;6.80;96.30;;;;;;4973655;28;20280;-85
2021/04/18 13:43:30;;;;;;;19.47;12.93;;;6.70;96.30;;;;;;4974616;28;20229;-85
2021/04/18 13:45:55;;;;;;;14.10;12.60;;;6.70;96.30;;;;;;4978292;28;20465;-85
2021/04/18 13:48:21;;;;;;;18.70;13.83;;;6.70;96.30;;;;;;4974598;28;20527;-83
2021/04/18 13:50:46;;;;;;;15.00;13.40;;;6.70;96.30;;;;;;4975860;28;20190;-84
2021/04/18 13:53:14;;;;;;;17.73;13.77;;;;;;;;;;4975201;28;20170;-85
2021/04/18 13:55:39;;;;;;;17.57;13.53;;;6.70;96.30;;;;;;4973375;28;20290;-84
2021/04/18 13:58:04;;;;;;;20.40;13.97;;;6.70;96.30;;;;;;4973599;28;20881;-85
2021/04/18 14:00:30;;;;;;;15.93;13.53;;;6.70;96.30;;;;;;4973323;28;20230;-85
2021/04/18 14:02:55;;;;;;;15.30;12.93;;;6.80;96.30;;;;;;4973150;28;20186;-85
2021/04/18 14:05:21;;;;;;;16.00;13.40;;;6.80;96.30;;;;;;4978032;28;20198;-85
2021/04/18 14:07:47;;;;;;;14.90;12.80;;;6.90;96.30;;;;;;4992390;28;20668;-85
2021/04/18 14:10:14;;;;;;;15.60;12.40;;;6.80;96.30;;;;;;4979204;28;20186;-85
2021/04/18 14:12:40;;;;;;;11.97;10.63;;;6.80;96.30;;;;;;4972979;28;20533;-85
2021/04/18 14:15:08;;;;;;;13.30;11.47;;;6.80;96.30;;;;;;4972952;28;20505;-85
2021/04/18 14:17:33;;;;;;;13.80;11.30;;;6.90;96.30;;;;;;4973066;28;20426;-85
2021/04/18 14:19:59;;;;;;;12.60;11.30;;;6.90;96.30;;;;;;4973682;28;20476;-85
2021/04/18 14:22:25;;;;;;;13.03;11.63;;;6.90;96.30;;;;;;4972956;28;20209;-86
2021/04/18 14:24:52;;;;;;;15.40;10.93;;;6.90;96.30;;;;;;4972975;28;20293;-86
2021/04/18 14:27:18;;;;;;;15.03;11.63;;;7.00;96.30;;;;;;4972633;28;20814;-85
2021/04/18 14:29:44;;;;;;;12.20;10.67;;;6.90;96.30;;;;;;4972825;28;20471;-86
2021/04/18 14:32:09;;;;;;;15.90;11.90;;;6.90;96.30;;;;;;4983531;28;20925;-86
2021/04/18 14:34:35;;;;;;;14.40;11.20;;;6.80;96.30;;;;;;4972500;28;20170;-85
2021/04/18 14:37:01;;;;;;;12.67;10.60;;;6.80;96.30;;;;;;4971918;28;20647;-85
2021/04/18 14:39:30;;;;;;;13.40;12.00;;;6.90;96.30;;;;;;4966240;28;20182;-85
2021/04/18 14:41:56;;;;;;;15.20;10.63;;;6.90;96.30;;;;;;4974249;28;20195;-84
2021/04/18 14:44:22;;;;;;;15.10;10.53;;;6.90;96.30;;;;;;4974851;28;20508;-87
2021/04/18 14:46:48;;;;;;;12.47;10.50;;;6.90;96.30;;;;;;4974824;28;20182;-85
2021/04/18 14:49:14;;;;;;;10.70;9.60;;;;;;;;;;4972962;28;20428;-90
2021/04/18 14:51:39;;;;;;;10.87;8.23;;;7.10;96.30;;;;;;4973078;28;20214;-87
2021/04/18 14:54:05;;;;;;;7.87;7.17;;;7.20;96.30;;;;;;4973197;28;20406;-86
2021/04/18 14:56:31;;;;;;;7.87;6.70;;;7.30;96.30;;;;;;4972819;28;20182;-87
2021/04/18 14:58:56;;;;;;;8.73;7.87;;;7.30;96.30;;;;;;4970517;28;20464;-87
2021/04/18 15:01:22;;;;;;;9.57;7.00;;;7.30;96.30;;;;;;4973267;28;20221;-85
2021/04/18 15:03:47;;;;;;;8.37;7.40;;;7.40;96.30;;;;;;4982782;28;20194;-88
2021/04/18 15:06:16;;;;;;;8.37;7.13;;;7.40;96.30;;;;;;4995646;28;20221;-86
2021/04/18 15:08:42;;;;;;;8.57;7.67;;;7.40;96.30;;;;;;4976470;28;20174;-86
2021/04/18 15:11:07;;;;;;;8.30;7.60;;;7.50;96.30;;;;;;4973693;28;20961;-85
2021/04/18 15:13:33;;;;;;;7.73;6.67;;;7.40;96.30;;;;;;4973281;28;20215;-85
2021/04/18 15:15:59;;;;;;;9.77;7.60;;;7.40;96.30;;;;;;4973460;28;20604;-85
2021/04/18 15:18:25;;;;;;;7.57;6.87;;;7.40;96.30;;;;;;4972871;28;20676;-86
2021/04/18 15:20:51;;;;;;;11.13;8.47;;;7.30;96.30;;;;;;4973783;28;20876;-85
2021/04/18 15:23:18;;;;;;;9.17;8.17;;;7.30;96.30;;;;;;4973402;28;20426;-85
2021/04/18 15:25:44;;;;;;;16.53;7.40;;;7.30;96.30;;;;;;4966231;28;20252;-85
2021/04/18 15:28:09;;;;;;;8.23;7.30;;;7.20;96.30;;;;;;4977141;28;20413;-84
2021/04/18 15:30:35;;;;;;;7.27;6.57;;;7.20;96.30;;;;;;4975797;28;20285;-84
2021/04/18 15:33:00;;;;;;;9.33;7.00;;;7.20;96.30;;;;;;4976181;28;20527;-86
2021/04/18 15:35:26;;;;;;;8.07;7.30;;;7.10;96.30;;;;;;4982901;28;20582;-86
2021/04/18 15:37:52;;;;;;;12.03;7.20;;;7.20;96.30;;;;;;4975738;28;20171;-85
2021/04/18 15:40:19;;;;;;;8.03;7.23;;;7.20;96.30;;;;;;4975935;28;20170;-84
2021/04/18 15:42:47;;;;;;;7.70;6.97;;;7.20;96.30;;;;;;4975545;28;20476;-85
2021/04/18 15:45:14;;;;;;;10.50;7.70;;;7.30;96.30;;;;;;4977130;28;20488;-84
2021/04/18 15:47:40;;;;;;;9.77;7.23;;;7.30;96.30;;;;;;4974857;28;20422;-85
2021/04/18 15:50:07;;;;;;;6.83;6.13;;;7.40;96.30;;;;;;4975585;28;20510;-85
2021/04/18 15:52:33;;;;;;;7.00;6.30;;;7.40;96.30;;;;;;4974772;28;20485;-85
2021/04/18 15:54:59;;;;;;;7.80;6.40;;;7.50;96.30;;;;;;4974524;28;20484;-85
2021/04/18 15:57:24;;;;;;;6.03;5.43;;;7.50;96.30;;;;;;4976157;28;20825;-85
2021/04/18 15:59:50;;;;;;;5.10;4.60;;;7.50;96.30;;;;;;4970418;28;20188;-85
2021/04/18 16:02:16;;;;;;;5.83;5.23;;;7.50;96.30;;;;;;4975883;28;20570;-86
2021/04/18 16:04:42;;;;;;;5.93;5.00;;;7.50;96.30;;;;;;4976641;28;20449;-86
2021/04/18 16:07:08;;;;;;;6.40;5.50;;;7.50;96.30;;;;;;4976265;28;20905;-86
2021/04/18 16:09:36;;;;;;;5.93;5.10;;;7.60;96.30;;;;;;4978134;28;20409;-86
2021/04/18 16:12:03;;;;;;;6.47;5.20;;;7.60;96.30;;;;;;4976966;28;20222;-86
2021/04/18 16:14:30;;;;;;;6.50;4.87;;;7.50;96.30;;;;;;4992341;28;20936;-86
2021/04/18 16:16:56;;;;;;;5.67;5.07;;;7.50;96.30;;;;;;4994794;28;20509;-87
2021/04/18 16:19:23;;;;;;;6.03;5.43;;;7.50;96.30;;;;;;4984082;28;20950;-86
2021/04/18 16:21:49;;;;;;;5.30;4.80;;;7.40;96.30;;;;;;4975689;28;20864;-84
2021/04/18 16:24:15;;;;;;;6.13;5.53;;;7.40;96.30;;;;;;4975247;28;20460;-85
2021/04/18 16:26:43;;;;;;;5.87;5.27;;;7.30;96.30;;;;;;4977309;28;20455;-85
2021/04/18 16:29:10;;;;;;;5.73;5.23;;;7.30;96.30;;;;;;4982183;28;20416;-85
2021/04/18 16:31:38;;;;;;;23.80;20.80;;;7.30;96.30;;;;;;4991240;28;20445;-86
2021/04/18 16:34:07;;;;;;;31.77;24.70;;;7.10;96.30;;;;;;4976349;28;20413;-85
2021/04/18 16:36:32;;;;;;;7.57;6.73;;;7.10;96.30;;;;;;4969770;28;20436;-84
2021/04/18 16:38:58;;;;;;;6.17;5.53;;;7.10;96.30;;;;;;5004933;23;20442;-78
2021/04/18 16:41:23;;;;;;;7.57;6.87;;;7.10;96.30;;;;;;5015201;28;20169;-78
2021/04/18 16:43:50;;;;;;;7.20;5.60;;;7.00;96.30;;;;;;5014817;28;20181;-77
2021/04/18 16:46:16;;;;;;;6.27;5.67;;;7.00;96.30;;;;;;5014872;28;20199;-77
2021/04/18 16:48:42;;;;;;;8.37;7.13;;;6.90;96.30;;;;;;5014793;28;20412;-77
2021/04/18 16:51:08;;;;;;;7.73;7.00;;;6.80;96.30;;;;;;4995071;28;20440;-78
2021/04/18 16:53:35;;;;;;;7.50;6.77;;;6.90;96.30;;;;;;4993652;28;20425;-77
2021/04/18 16:56:00;;;;;;;6.43;5.83;;;6.80;96.30;;;;;;4996639;28;20199;-77